Time;durP1;ratioP1;P1;durP2;ratioP2;P2;SDS_P1;SDS_P2;PMS_P1;PMS_P2;Temp;Humidity;BMP_temperature;BMP_pressure;BME280_temperature;BME280_humidity;BME280_pressure;Samples;Min_cycle;Max_cycle;Signal;HPM_P1;HPM_P2
2023/04/18 00:02:09;;;;;;;12.73;8.27;;;;;;;;;;5010811;28;20471;-44
2023/04/18 00:04:35;;;;;;;14.97;8.63;;;;;;;;;;5013147;28;20436;-44
2023/04/18 00:07:01;;;;;;;12.13;8.63;;;;;;;;;;5017555;28;20436;-44
2023/04/18 00:09:27;;;;;;;10.73;8.20;;;;;;;;;;5023584;28;20461;-44
2023/04/18 00:11:53;;;;;;;14.67;9.10;;;;;;;;;;5017229;28;20965;-44
2023/04/18 00:14:19;;;;;;;12.67;8.77;;;;;;;;;;5007611;28;20450;-44
2023/04/18 00:16:45;;;;;;;11.53;8.57;;;;;;;;;;5015524;28;20482;-44
2023/04/18 00:19:13;;;;;;;11.73;8.73;;;;;;;;;;5008129;28;20476;-44
2023/04/18 00:21:43;;;;;;;12.90;8.93;;;;;;;;;;5022595;28;20422;-44
2023/04/18 00:24:09;;;;;;;8.97;7.73;;;;;;;;;;5018015;28;20414;-44
2023/04/18 00:26:35;;;;;;;12.30;7.70;;;;;;;;;;5019790;28;20438;-44
2023/04/18 00:29:04;;;;;;;12.43;8.07;;;;;;;;;;5018604;28;20515;-44
2023/04/18 00:31:30;;;;;;;10.37;8.30;;;;;;;;;;5014168;28;20247;-44
2023/04/18 00:33:56;;;;;;;12.57;8.60;;;;;;;;;;5013168;28;20874;-44
2023/04/18 00:36:22;;;;;;;10.40;7.80;;;;;;;;;;5018970;28;20414;-44
2023/04/18 00:38:48;;;;;;;9.10;7.77;;;;;;;;;;5019050;28;20463;-44
2023/04/18 00:41:14;;;;;;;10.17;8.07;;;;;;;;;;5022781;28;20484;-44
2023/04/18 00:43:40;;;;;;;10.17;8.30;;;;;;;;;;5018754;28;20447;-44
2023/04/18 00:46:06;;;;;;;10.40;7.67;;;;;;;;;;5022201;28;20859;-44
2023/04/18 00:48:32;;;;;;;13.73;9.07;;;;;;;;;;5017288;28;20832;-44
2023/04/18 00:50:59;;;;;;;7.97;6.73;;;;;;;;;;5023512;28;20408;-44
2023/04/18 00:53:25;;;;;;;12.30;8.50;;;;;;;;;;5025630;28;20989;-44
2023/04/18 00:55:51;;;;;;;13.27;8.50;;;;;;;;;;5023419;28;20962;-44
2023/04/18 00:58:17;;;;;;;20.40;8.17;;;;;;;;;;5023553;28;20459;-45
2023/04/18 01:00:43;;;;;;;14.83;7.80;;;;;;;;;;5018247;28;20896;-44
2023/04/18 01:03:09;;;;;;;10.70;8.30;;;;;;;;;;5023913;28;20865;-44
2023/04/18 01:05:35;;;;;;;11.83;9.47;;;;;;;;;;5022112;28;21007;-44
2023/04/18 01:08:02;;;;;;;11.70;8.87;;;;;;;;;;5022382;28;20434;-44
2023/04/18 01:10:28;;;;;;;13.00;8.73;;;;;;;;;;5017910;28;20418;-44
2023/04/18 01:13:27;;;;;;;11.63;9.03;;;;;;;;;;5012808;28;20193;-44
2023/04/18 01:15:54;;;;;;;11.00;8.20;;;;;;;;;;5014657;28;20423;-44
2023/04/18 01:18:21;;;;;;;12.30;8.73;;;;;;;;;;5015362;28;20852;-44
2023/04/18 01:20:48;;;;;;;11.67;8.40;;;;;;;;;;5021838;28;20934;-44
2023/04/18 01:23:14;;;;;;;12.07;9.00;;;;;;;;;;5024303;28;20399;-44
2023/04/18 01:25:40;;;;;;;11.07;7.83;;;;;;;;;;5023367;28;20416;-44
2023/04/18 01:28:06;;;;;;;9.43;7.20;;;;;;;;;;5018121;28;20964;-44
2023/04/18 01:30:33;;;;;;;11.90;8.90;;;;;;;;;;5007072;28;20432;-44
2023/04/18 01:33:03;;;;;;;10.73;8.07;;;;;;;;;;5027120;28;20429;-44
2023/04/18 01:35:29;;;;;;;9.93;8.00;;;;;;;;;;5019487;28;20422;-44
2023/04/18 01:37:55;;;;;;;8.77;7.47;;;;;;;;;;5010725;28;20464;-44
2023/04/18 01:40:21;;;;;;;9.23;7.87;;;;;;;;;;5018592;28;20468;-44
2023/04/18 01:42:47;;;;;;;10.17;7.43;;;;;;;;;;5020998;28;20731;-44
2023/04/18 01:45:13;;;;;;;11.50;7.70;;;;;;;;;;5011080;28;20500;-44
2023/04/18 01:47:39;;;;;;;7.80;7.00;;;;;;;;;;5029135;28;20443;-44
2023/04/18 01:50:05;;;;;;;10.00;7.13;;;;;;;;;;5020678;28;20417;-44
2023/04/18 01:52:31;;;;;;;12.90;8.40;;;;;;;;;;5022583;28;20744;-44
2023/04/18 01:54:57;;;;;;;9.07;6.83;;;;;;;;;;5025472;28;20429;-44
2023/04/18 01:57:23;;;;;;;9.10;7.80;;;;;;;;;;5020491;28;20805;-45
2023/04/18 01:59:49;;;;;;;9.90;6.82;;;;;;;;;;5015193;28;20407;-44
2023/04/18 02:02:15;;;;;;;10.30;7.27;;;;;;;;;;5021426;28;20185;-44
2023/04/18 02:04:41;;;;;;;8.80;6.93;;;;;;;;;;5028643;28;20399;-44
2023/04/18 02:07:07;;;;;;;11.40;9.50;;;;;;;;;;5022456;28;20197;-44
2023/04/18 02:09:33;;;;;;;7.97;6.83;;;;;;;;;;5014830;28;20982;-44
2023/04/18 02:12:01;;;;;;;9.17;7.33;;;;;;;;;;5008748;28;20950;-44
2023/04/18 02:14:29;;;;;;;9.27;6.87;;;;;;;;;;5023996;28;20414;-44
2023/04/18 02:16:55;;;;;;;7.53;6.43;;;;;;;;;;5019002;28;20432;-44
2023/04/18 02:19:23;;;;;;;12.00;7.00;;;;;;;;;;5024939;28;20465;-44
2023/04/18 02:21:49;;;;;;;8.70;6.17;;;;;;;;;;5014605;28;20439;-44
2023/04/18 02:24:15;;;;;;;7.27;6.13;;;;;;;;;;5017958;28;20426;-44
2023/04/18 02:26:41;;;;;;;7.70;6.80;;;;;;;;;;5017196;28;20422;-44
2023/04/18 02:29:06;;;;;;;8.07;6.30;;;;;;;;;;5021982;28;20497;-44
2023/04/18 02:31:32;;;;;;;7.20;6.43;;;;;;;;;;5020033;28;20445;-44
2023/04/18 02:33:58;;;;;;;9.70;6.90;;;;;;;;;;5015688;28;20424;-44
2023/04/18 02:36:26;;;;;;;8.47;6.63;;;;;;;;;;5020373;28;20423;-44
2023/04/18 02:38:52;;;;;;;8.77;7.30;;;;;;;;;;5018011;28;20460;-44
2023/04/18 02:41:18;;;;;;;7.93;5.85;;;;;;;;;;5021070;28;20408;-44
2023/04/18 02:43:44;;;;;;;10.13;7.40;;;;;;;;;;5020031;28;20177;-44
2023/04/18 02:46:11;;;;;;;8.40;5.85;;;;;;;;;;5023409;28;20465;-45
2023/04/18 02:48:37;;;;;;;9.88;6.60;;;;;;;;;;5016004;28;20265;-45
2023/04/18 02:51:06;;;;;;;7.80;6.05;;;;;;;;;;5012470;28;20264;-44
2023/04/18 02:53:32;;;;;;;6.90;6.15;;;;;;;;;;5014164;28;20231;-44
2023/04/18 02:55:59;;;;;;;6.25;5.65;;;;;;;;;;5020957;28;20617;-44
2023/04/18 02:58:25;;;;;;;7.65;5.85;;;;;;;;;;5025141;28;20207;-44
2023/04/18 03:00:54;;;;;;;7.10;6.35;;;;;;;;;;5018914;28;20233;-44
2023/04/18 03:03:20;;;;;;;7.47;6.65;;;;;;;;;;5012552;28;20195;-44
2023/04/18 03:05:47;;;;;;;7.27;6.30;;;;;;;;;;5014972;28;20209;-44
2023/04/18 03:08:13;;;;;;;7.37;6.50;;;;;;;;;;5008636;28;20435;-44
2023/04/18 03:10:39;;;;;;;8.80;6.07;;;;;;;;;;5023109;28;20415;-44
2023/04/18 03:13:05;;;;;;;8.65;6.30;;;;;;;;;;5011620;28;20428;-44
2023/04/18 03:15:31;;;;;;;8.45;6.10;;;;;;;;;;5020795;28;20191;-44
2023/04/18 03:17:58;;;;;;;7.77;6.40;;;;;;;;;;5018727;28;20595;-44
2023/04/18 03:20:24;;;;;;;8.45;6.78;;;;;;;;;;5016016;28;20495;-44
2023/04/18 03:22:50;;;;;;;8.25;7.13;;;;;;;;;;5010773;28;20179;-44
2023/04/18 03:25:16;;;;;;;7.37;6.63;;;;;;;;;;5019975;28;20558;-44
2023/04/18 03:27:42;;;;;;;10.02;5.85;;;;;;;;;;5021405;28;20485;-44
2023/04/18 03:30:09;;;;;;;8.43;7.10;;;;;;;;;;5014963;28;20181;-44
2023/04/18 03:32:35;;;;;;;6.78;5.80;;;;;;;;;;5016277;28;20443;-44
2023/04/18 03:35:01;;;;;;;7.23;6.00;;;;;;;;;;5018121;28;20463;-44
2023/04/18 03:37:27;;;;;;;9.70;6.93;;;;;;;;;;5012524;28;20485;-44
2023/04/18 03:39:53;;;;;;;6.85;6.15;;;;;;;;;;5019646;28;20243;-45
2023/04/18 03:42:19;;;;;;;9.18;7.28;;;;;;;;;;5011742;28;20180;-44
2023/04/18 03:44:45;;;;;;;7.37;6.10;;;;;;;;;;5018495;28;20172;-44
2023/04/18 03:47:13;;;;;;;7.97;6.13;;;;;;;;;;5017585;28;20893;-44
2023/04/18 03:49:39;;;;;;;9.32;6.85;;;;;;;;;;5012722;28;20403;-44
2023/04/18 03:52:06;;;;;;;10.75;7.20;;;;;;;;;;5018222;28;20584;-44
2023/04/18 03:54:32;;;;;;;10.82;8.38;;;;;;;;;;5020824;28;20185;-44
2023/04/18 03:56:58;;;;;;;10.18;7.10;;;;;;;;;;5020938;28;20618;-44
2023/04/18 03:59:24;;;;;;;11.10;8.18;;;;;;;;;;5018892;28;20207;-44
2023/04/18 04:01:50;;;;;;;9.52;7.15;;;;;;;;;;5015112;28;20568;-44
2023/04/18 04:04:16;;;;;;;9.40;7.83;;;;;;;;;;5015137;28;20168;-44
2023/04/18 04:06:42;;;;;;;10.80;7.30;;;;;;;;;;5021667;28;20987;-44
2023/04/18 04:09:08;;;;;;;9.07;7.70;;;;;;;;;;5018403;28;20494;-44
2023/04/18 04:11:34;;;;;;;10.23;7.55;;;;;;;;;;5019332;28;20441;-45
2023/04/18 04:14:01;;;;;;;10.67;8.33;;;;;;;;;;5018387;28;20207;-45
2023/04/18 04:16:27;;;;;;;11.57;7.60;;;;;;;;;;5015047;28;20478;-45
2023/04/18 04:18:53;;;;;;;8.07;7.27;;;;;;;;;;5012680;28;20477;-44
2023/04/18 04:21:19;;;;;;;10.40;7.00;;;;;;;;;;5018317;28;20429;-44
2023/04/18 04:23:45;;;;;;;8.70;7.70;;;;;;;;;;5021313;28;20898;-45
2023/04/18 04:26:13;;;;;;;10.20;7.10;;;;;;;;;;5014598;28;20416;-44
2023/04/18 04:28:39;;;;;;;9.23;6.93;;;;;;;;;;5015566;28;20463;-44
2023/04/18 04:31:07;;;;;;;8.57;7.15;;;;;;;;;;5017822;28;20485;-44
2023/04/18 04:33:32;;;;;;;11.07;8.60;;;;;;;;;;5017369;28;20200;-44
2023/04/18 04:36:00;;;;;;;12.47;8.33;;;;;;;;;;5019458;28;20687;-44
2023/04/18 04:38:29;;;;;;;12.00;8.48;;;;;;;;;;5021731;28;20457;-45
2023/04/18 04:40:55;;;;;;;10.30;8.07;;;;;;;;;;5019265;28;20175;-44
2023/04/18 04:43:21;;;;;;;9.93;8.25;;;;;;;;;;5011009;28;20415;-44
2023/04/18 04:45:50;;;;;;;12.40;8.63;;;;;;;;;;5010118;28;20196;-44
2023/04/18 04:48:17;;;;;;;10.18;8.10;;;;;;;;;;5021113;28;20453;-44
2023/04/18 04:50:50;;;;;;;12.13;9.03;;;;;;;;;;5020833;28;20161;-44
2023/04/18 04:53:16;;;;;;;13.38;9.32;;;;;;;;;;5021695;28;20394;-44
2023/04/18 04:55:42;;;;;;;14.10;9.70;;;;;;;;;;5015641;28;20644;-44
2023/04/18 04:58:08;;;;;;;13.10;9.40;;;;;;;;;;5015934;28;20466;-44
2023/04/18 05:00:34;;;;;;;12.27;8.90;;;;;;;;;;5010384;28;20407;-44
2023/04/18 05:03:00;;;;;;;13.37;8.80;;;;;;;;;;5020420;28;20769;-44
2023/04/18 05:05:26;;;;;;;12.00;8.90;;;;;;;;;;5018900;28;20878;-44
2023/04/18 05:07:53;;;;;;;11.80;8.80;;;;;;;;;;5014767;28;20465;-44
2023/04/18 05:10:19;;;;;;;10.80;8.80;;;;;;;;;;5021516;28;20451;-44
2023/04/18 05:12:45;;;;;;;11.57;9.67;;;;;;;;;;5018228;28;20911;-45
2023/04/18 05:15:11;;;;;;;12.50;9.60;;;;;;;;;;5012201;28;20425;-44
2023/04/18 05:17:37;;;;;;;11.17;9.90;;;;;;;;;;5018016;28;20510;-44
2023/04/18 05:20:04;;;;;;;17.97;10.23;;;;;;;;;;5019470;28;20523;-44
2023/04/18 05:22:30;;;;;;;15.40;9.73;;;;;;;;;;5014838;28;20448;-44
2023/04/18 05:24:56;;;;;;;11.67;9.10;;;;;;;;;;5011340;28;20841;-45
2023/04/18 05:27:22;;;;;;;12.23;10.57;;;;;;;;;;5016884;28;20443;-44
2023/04/18 05:29:49;;;;;;;11.87;10.23;;;;;;;;;;5018542;28;20403;-44
2023/04/18 05:32:15;;;;;;;14.37;10.07;;;;;;;;;;5023772;28;20404;-44
2023/04/18 05:34:42;;;;;;;14.40;10.20;;;;;;;;;;5022647;28;20444;-44
2023/04/18 05:37:08;;;;;;;11.40;9.23;;;;;;;;;;5022159;28;20777;-44
2023/04/18 05:39:34;;;;;;;10.90;9.73;;;;;;;;;;5016564;28;20459;-44
2023/04/18 05:42:01;;;;;;;16.15;11.80;;;;;;;;;;5010062;28;20416;-44
2023/04/18 05:44:29;;;;;;;17.17;11.80;;;;;;;;;;5024800;28;20164;-44
2023/04/18 05:46:55;;;;;;;14.83;11.10;;;;;;;;;;5019629;28;20418;-44
2023/04/18 05:49:21;;;;;;;13.87;10.23;;;;;;;;;;5027060;28;20561;-43
2023/04/18 05:51:51;;;;;;;17.00;11.70;;;;;;;;;;5018077;28;20501;-43
2023/04/18 05:54:17;;;;;;;16.20;11.33;;;;;;;;;;5019426;28;20407;-43
2023/04/18 05:56:43;;;;;;;14.90;10.83;;;;;;;;;;5014447;28;20953;-43
2023/04/18 05:59:09;;;;;;;13.60;10.60;;;;;;;;;;5022952;28;20462;-43
2023/04/18 06:01:35;;;;;;;14.38;11.00;;;;;;;;;;5020938;28;20929;-44
2023/04/18 06:04:01;;;;;;;17.60;11.27;;;;;;;;;;5023995;28;20207;-43
2023/04/18 06:06:27;;;;;;;14.97;11.30;;;;;;;;;;5021704;28;20400;-44
2023/04/18 06:08:54;;;;;;;16.20;11.27;;;;;;;;;;5018763;28;20770;-43
2023/04/18 06:11:20;;;;;;;16.13;10.87;;;;;;;;;;5013473;28;20432;-43
2023/04/18 06:13:46;;;;;;;15.83;10.20;;;;;;;;;;5026233;28;20443;-43
2023/04/18 06:16:12;;;;;;;16.00;10.63;;;;;;;;;;5019396;28;20419;-43
2023/04/18 06:18:38;;;;;;;15.60;9.90;;;;;;;;;;5014058;28;20462;-43
2023/04/18 06:21:10;;;;;;;12.43;9.47;;;;;;;;;;5017838;28;20897;-43
2023/04/18 06:23:37;;;;;;;14.83;10.10;;;;;;;;;;5015318;28;20504;-43
2023/04/18 06:26:03;;;;;;;14.70;10.30;;;;;;;;;;5020306;28;20409;-43
2023/04/18 06:28:29;;;;;;;19.20;10.80;;;;;;;;;;5026300;28;20437;-44
2023/04/18 06:30:55;;;;;;;14.00;10.20;;;;;;;;;;5021356;28;20507;-44
2023/04/18 06:33:21;;;;;;;15.13;9.40;;;;;;;;;;5021024;28;20550;-45
2023/04/18 06:35:48;;;;;;;14.70;10.97;;;;;;;;;;5017773;28;20424;-44
2023/04/18 06:38:15;;;;;;;12.80;10.03;;;;;;;;;;5009581;28;20931;-44
2023/04/18 06:40:41;;;;;;;13.63;10.33;;;;;;;;;;5021079;28;20419;-43
2023/04/18 06:43:07;;;;;;;11.30;10.10;;;;;;;;;;5021400;28;20425;-44
2023/04/18 06:45:34;;;;;;;18.30;10.40;;;;;;;;;;5023532;28;20472;-44
2023/04/18 06:48:02;;;;;;;12.57;10.00;;;;;;;;;;5028637;28;20459;-45
2023/04/18 06:50:29;;;;;;;14.73;11.17;;;;;;;;;;5007609;28;20782;-44
2023/04/18 06:52:58;;;;;;;15.37;9.90;;;;;;;;;;5015804;28;20424;-45
2023/04/18 06:55:24;;;;;;;19.07;11.37;;;;;;;;;;5018839;28;20501;-44
2023/04/18 06:57:52;;;;;;;23.43;10.73;;;;;;;;;;5024409;28;20435;-44
2023/04/18 07:00:19;;;;;;;13.63;10.43;;;;;;;;;;5020588;28;20415;-44
2023/04/18 07:02:45;;;;;;;15.47;10.70;;;;;;;;;;5014988;28;20434;-44
2023/04/18 07:05:11;;;;;;;15.37;10.20;;;;;;;;;;5021102;28;20406;-44
2023/04/18 07:07:37;;;;;;;15.27;11.70;;;;;;;;;;5021077;28;20508;-44
2023/04/18 07:10:03;;;;;;;15.77;11.00;;;;;;;;;;5021784;28;20413;-44
2023/04/18 07:12:29;;;;;;;16.60;11.17;;;;;;;;;;5022806;28;20416;-44
2023/04/18 07:14:56;;;;;;;15.40;10.17;;;;;;;;;;5021486;28;20503;-44
2023/04/18 07:17:22;;;;;;;16.10;11.57;;;;;;;;;;5013979;28;20432;-44
2023/04/18 07:19:48;;;;;;;17.20;12.50;;;;;;;;;;5011813;28;20495;-44
2023/04/18 07:22:14;;;;;;;14.90;11.03;;;;;;;;;;5016627;28;20955;-44
2023/04/18 07:24:40;;;;;;;17.67;10.60;;;;;;;;;;5009366;28;20979;-44
2023/04/18 07:27:08;;;;;;;20.37;11.07;;;;;;;;;;5022282;28;20425;-44
2023/04/18 07:29:34;;;;;;;16.27;12.37;;;;;;;;;;5019850;28;20460;-44
2023/04/18 07:32:00;;;;;;;14.60;11.40;;;;;;;;;;5016901;28;20416;-44
2023/04/18 07:34:28;;;;;;;15.77;12.13;;;;;;;;;;5011397;28;20436;-45
2023/04/18 07:36:55;;;;;;;13.93;10.27;;;;;;;;;;5023454;28;20412;-45
2023/04/18 07:39:21;;;;;;;15.70;10.60;;;;;;;;;;5020174;28;20461;-44
2023/04/18 07:41:47;;;;;;;15.03;11.20;;;;;;;;;;5016338;28;20588;-44
2023/04/18 07:44:13;;;;;;;14.40;11.07;;;;;;;;;;5021896;28;20420;-45
2023/04/18 07:46:39;;;;;;;18.47;11.63;;;;;;;;;;5015360;28;20456;-44
2023/04/18 07:49:05;;;;;;;17.50;12.03;;;;;;;;;;5013299;28;20498;-44
2023/04/18 07:51:31;;;;;;;11.73;9.37;;;;;;;;;;5018853;28;20518;-44
2023/04/18 07:53:58;;;;;;;16.93;10.40;;;;;;;;;;5016798;28;20434;-44
2023/04/18 07:56:24;;;;;;;15.80;11.17;;;;;;;;;;5020083;28;20411;-45
2023/04/18 07:58:50;;;;;;;13.10;9.83;;;;;;;;;;5013925;28;20455;-45
2023/04/18 08:01:18;;;;;;;14.67;10.20;;;;;;;;;;5018934;28;20442;-44
2023/04/18 08:03:45;;;;;;;15.30;10.87;;;;;;;;;;5015328;28;20433;-44
2023/04/18 08:06:11;;;;;;;20.83;12.30;;;;;;;;;;5022471;28;20403;-44
2023/04/18 08:08:37;;;;;;;15.30;10.53;;;;;;;;;;5021833;28;20441;-44
2023/04/18 08:11:03;;;;;;;18.03;12.20;;;;;;;;;;5020986;28;20418;-44
2023/04/18 08:13:29;;;;;;;19.70;11.00;;;;;;;;;;5012436;28;20456;-44
2023/04/18 08:15:55;;;;;;;21.43;10.87;;;;;;;;;;5010749;28;20922;-44
2023/04/18 08:18:22;;;;;;;13.63;9.77;;;;;;;;;;5029220;28;20460;-44
2023/04/18 08:20:49;;;;;;;13.30;10.47;;;;;;;;;;5019181;28;20426;-44
2023/04/18 08:23:15;;;;;;;16.27;10.60;;;;;;;;;;5021933;28;20918;-44
2023/04/18 08:25:41;;;;;;;13.30;9.67;;;;;;;;;;5018145;28;20415;-44
2023/04/18 08:28:07;;;;;;;17.17;10.30;;;;;;;;;;5017754;28;20523;-44
2023/04/18 08:30:33;;;;;;;16.17;8.17;;;;;;;;;;5009808;28;20492;-45
2023/04/18 08:32:59;;;;;;;14.90;10.77;;;;;;;;;;5021628;28;20416;-44
2023/04/18 08:35:25;;;;;;;15.13;10.17;;;;;;;;;;5022219;28;20417;-44
2023/04/18 08:37:51;;;;;;;14.70;10.63;;;;;;;;;;5016923;28;20443;-44
2023/04/18 08:40:17;;;;;;;15.97;10.33;;;;;;;;;;5022527;28;20499;-44
2023/04/18 08:42:44;;;;;;;15.33;9.73;;;;;;;;;;5014356;28;20408;-44
2023/04/18 08:45:12;;;;;;;15.80;10.90;;;;;;;;;;5006539;28;20413;-44
2023/04/18 08:47:39;;;;;;;16.30;10.70;;;;;;;;;;5009972;28;20460;-44
2023/04/18 08:50:06;;;;;;;14.77;9.83;;;;;;;;;;5000075;28;20843;-44
2023/04/18 08:52:33;;;;;;;16.47;9.50;;;;;;;;;;4991082;28;20865;-46
2023/04/18 08:55:01;;;;;;;17.70;10.97;;;;;;;;;;4999093;28;21085;-45
2023/04/18 08:57:29;;;;;;;17.33;11.10;;;;;;;;;;5011309;28;20437;-44
2023/04/18 08:59:55;;;;;;;15.37;10.70;;;;;;;;;;5011132;28;20454;-44
2023/04/18 09:02:22;;;;;;;16.20;11.67;;;;;;;;;;4991188;28;20396;-44
2023/04/18 09:04:51;;;;;;;15.40;10.00;;;;;;;;;;4995220;28;20418;-44
2023/04/18 09:07:18;;;;;;;15.47;11.27;;;;;;;;;;4995421;28;20437;-45
2023/04/18 09:09:45;;;;;;;17.53;11.50;;;;;;;;;;4995340;28;20434;-44
2023/04/18 09:12:13;;;;;;;16.17;10.00;;;;;;;;;;4994716;28;21014;-44
2023/04/18 09:14:44;;;;;;;20.17;10.70;;;;;;;;;;4995361;28;20493;-45
2023/04/18 09:17:30;;;;;;;14.70;10.00;;;;;;;;;;4995306;28;20447;-44
2023/04/18 09:19:57;;;;;;;17.83;11.17;;;;;;;;;;4998707;28;20473;-44
2023/04/18 09:22:25;;;;;;;15.63;10.90;;;;;;;;;;5012614;28;20437;-44
2023/04/18 09:24:52;;;;;;;17.70;11.40;;;;;;;;;;4995312;28;20411;-44
2023/04/18 09:27:22;;;;;;;16.37;11.90;;;;;;;;;;4995264;28;20441;-44
2023/04/18 09:29:48;;;;;;;17.60;11.30;;;;;;;;;;4995011;28;20446;-44
2023/04/18 09:32:23;;;;;;;17.73;11.60;;;;;;;;;;4994474;28;20419;-45
2023/04/18 09:34:50;;;;;;;18.67;11.80;;;;;;;;;;4995101;28;20446;-44
2023/04/18 09:37:16;;;;;;;19.17;12.67;;;;;;;;;;4994880;28;20474;-44
2023/04/18 09:39:43;;;;;;;16.67;11.53;;;;;;;;;;4994904;28;20463;-44
2023/04/18 09:42:09;;;;;;;15.63;11.40;;;;;;;;;;4994280;28;20849;-45
2023/04/18 09:44:35;;;;;;;16.13;10.77;;;;;;;;;;4995007;28;20397;-44
2023/04/18 09:47:01;;;;;;;15.30;11.17;;;;;;;;;;5013226;28;20446;-45
2023/04/18 09:49:27;;;;;;;16.87;11.03;;;;;;;;;;5023261;28;20445;-44
2023/04/18 09:51:54;;;;;;;15.73;11.47;;;;;;;;;;5020233;28;20422;-45
2023/04/18 09:54:22;;;;;;;17.23;11.10;;;;;;;;;;4998275;28;20416;-45
2023/04/18 09:56:50;;;;;;;17.17;10.97;;;;;;;;;;5006270;28;20432;-44
2023/04/18 09:59:24;;;;;;;19.00;12.30;;;;;;;;;;4994481;28;20463;-45
2023/04/18 10:01:50;;;;;;;18.80;11.47;;;;;;;;;;4993797;28;20463;-45
2023/04/18 10:04:17;;;;;;;14.20;10.63;;;;;;;;;;4994930;28;20405;-44
2023/04/18 10:06:45;;;;;;;14.37;10.10;;;;;;;;;;4994777;28;20416;-44
2023/04/18 10:09:11;;;;;;;15.07;10.67;;;;;;;;;;4994616;28;20827;-44
2023/04/18 10:11:37;;;;;;;17.33;12.07;;;;;;;;;;5001829;28;21027;-44
2023/04/18 10:14:07;;;;;;;19.67;11.87;;;;;;;;;;5013392;28;20455;-44
2023/04/18 10:16:33;;;;;;;16.90;12.57;;;;;;;;;;5005366;28;20458;-44
2023/04/18 10:19:18;;;;;;;17.50;11.50;;;;;;;;;;4994188;28;20823;-45
2023/04/18 10:21:50;;;;;;;15.63;11.47;;;;;;;;;;4993499;28;20415;-44
2023/04/18 10:24:35;;;;;;;13.87;10.23;;;;;;;;;;4994172;28;20417;-45
2023/04/18 10:27:01;;;;;;;20.30;11.50;;;;;;;;;;4993958;28;20424;-44
2023/04/18 10:29:46;;;;;;;17.60;11.13;;;;;;;;;;4994045;28;20418;-44
2023/04/18 10:32:12;;;;;;;15.17;10.97;;;;;;;;;;4993464;28;20504;-44
2023/04/18 10:34:38;;;;;;;15.33;11.77;;;;;;;;;;5012427;28;20921;-45
2023/04/18 10:37:04;;;;;;;16.57;11.80;;;;;;;;;;5013277;28;20433;-44
2023/04/18 10:39:30;;;;;;;15.67;11.67;;;;;;;;;;5012362;28;21237;-44
2023/04/18 10:41:56;;;;;;;13.80;10.70;;;;;;;;;;5012085;28;20513;-46
2023/04/18 10:44:22;;;;;;;16.73;11.77;;;;;;;;;;5006325;28;20497;-45
2023/04/18 10:46:51;;;;;;;15.97;10.33;;;;;;;;;;4993622;28;20836;-44
2023/04/18 10:49:33;;;;;;;14.93;10.70;;;;;;;;;;4993526;28;20466;-45
2023/04/18 10:52:00;;;;;;;17.80;12.30;;;;;;;;;;4993429;28;20805;-44
2023/04/18 10:54:46;;;;;;;13.03;10.00;;;;;;;;;;5013131;28;20823;-44
2023/04/18 10:57:15;;;;;;;18.80;10.80;;;;;;;;;;5013421;28;20989;-45
2023/04/18 10:59:42;;;;;;;17.43;11.20;;;;;;;;;;5012426;28;20479;-45
2023/04/18 11:02:20;;;;;;;18.90;11.33;;;;;;;;;;5012020;28;20411;-44
2023/04/18 11:04:50;;;;;;;16.00;10.90;;;;;;;;;;5012917;28;20783;-44
2023/04/18 11:07:16;;;;;;;20.80;11.47;;;;;;;;;;5012932;28;20449;-45
2023/04/18 11:09:50;;;;;;;19.53;12.80;;;;;;;;;;5007952;28;20426;-44
2023/04/18 11:12:16;;;;;;;19.40;12.80;;;;;;;;;;5006236;28;20418;-45
2023/04/18 11:14:43;;;;;;;17.43;11.40;;;;;;;;;;4992705;28;20843;-45
2023/04/18 11:17:20;;;;;;;15.57;11.00;;;;;;;;;;4993097;28;20984;-45
2023/04/18 11:19:46;;;;;;;15.30;11.40;;;;;;;;;;4993159;28;20466;-44
2023/04/18 11:22:12;;;;;;;14.93;11.27;;;;;;;;;;4992271;28;20411;-44
2023/04/18 11:24:38;;;;;;;21.57;12.30;;;;;;;;;;4992939;28;20788;-45
2023/04/18 11:27:05;;;;;;;17.70;11.90;;;;;;;;;;4992018;28;20915;-44
2023/04/18 11:29:31;;;;;;;16.27;11.87;;;;;;;;;;4992961;28;20926;-44
2023/04/18 11:31:56;;;;;;;16.03;11.07;;;;;;;;;;4992114;28;20420;-45
2023/04/18 11:34:28;;;;;;;23.37;14.00;;;;;;;;;;4992975;28;20425;-45
2023/04/18 11:36:54;;;;;;;16.80;12.50;;;;;;;;;;4992641;28;20802;-44
2023/04/18 11:39:20;;;;;;;20.53;12.63;;;;;;;;;;4999428;28;20469;-44
2023/04/18 11:41:52;;;;;;;18.17;12.87;;;;;;;;;;4995432;28;20401;-45
2023/04/18 11:44:22;;;;;;;16.13;11.33;;;;;;;;;;4996699;28;20868;-45
2023/04/18 11:46:50;;;;;;;18.20;12.20;;;;;;;;;;4992545;28;20894;-44
2023/04/18 11:49:25;;;;;;;21.03;12.80;;;;;;;;;;4993235;28;20436;-44
2023/04/18 11:51:52;;;;;;;17.80;12.03;;;;;;;;;;5000713;28;20901;-43
2023/04/18 11:54:37;;;;;;;18.10;12.70;;;;;;;;;;5012900;28;20497;-44
2023/04/18 11:57:03;;;;;;;16.80;11.90;;;;;;;;;;4992350;28;20526;-45
2023/04/18 11:59:30;;;;;;;17.73;11.50;;;;;;;;;;5010847;28;20491;-45
2023/04/18 12:02:03;;;;;;;13.77;11.00;;;;;;;;;;5016681;28;20410;-45
2023/04/18 12:04:29;;;;;;;14.23;9.40;;;;;;;;;;5013494;28;20388;-45
2023/04/18 12:06:55;;;;;;;14.40;11.30;;;;;;;;;;5019120;28;20941;-44
2023/04/18 12:09:23;;;;;;;13.03;10.63;;;;;;;;;;5021517;28;20645;-45
2023/04/18 12:11:56;;;;;;;13.83;11.10;;;;;;;;;;5018346;28;20403;-45
2023/04/18 12:14:22;;;;;;;12.73;10.10;;;;;;;;;;5004531;28;20901;-45
2023/04/18 12:16:49;;;;;;;11.57;10.10;;;;;;;;;;5010265;28;20416;-44
2023/04/18 12:19:15;;;;;;;13.17;10.37;;;;;;;;;;5021092;28;20460;-45
2023/04/18 12:22:01;;;;;;;15.17;11.40;;;;;;;;;;5020805;28;20445;-44
2023/04/18 12:24:28;;;;;;;13.07;9.53;;;;;;;;;;5012401;28;20473;-44
2023/04/18 12:26:54;;;;;;;13.33;10.60;;;;;;;;;;5016536;28;20408;-44
2023/04/18 12:29:20;;;;;;;20.73;12.93;;;;;;;;;;5012039;28;20423;-44
2023/04/18 12:31:46;;;;;;;13.90;11.10;;;;;;;;;;5011132;28;20447;-44
2023/04/18 12:34:12;;;;;;;16.33;11.97;;;;;;;;;;5018534;28;20423;-44
2023/04/18 12:36:38;;;;;;;15.50;12.23;;;;;;;;;;5025728;28;20935;-44
2023/04/18 12:39:05;;;;;;;14.03;11.33;;;;;;;;;;5021481;28;20450;-45
2023/04/18 12:41:31;;;;;;;16.57;12.13;;;;;;;;;;5019024;28;20535;-44
2023/04/18 12:43:57;;;;;;;16.27;12.47;;;;;;;;;;5015580;28;20429;-45
2023/04/18 12:46:23;;;;;;;14.67;10.27;;;;;;;;;;4995866;28;20441;-45
2023/04/18 12:48:49;;;;;;;16.37;12.43;;;;;;;;;;4995725;28;20512;-45
2023/04/18 12:51:14;;;;;;;15.73;12.73;;;;;;;;;;4995735;28;20476;-45
2023/04/18 12:53:40;;;;;;;16.20;12.23;;;;;;;;;;4995438;28;20427;-45
2023/04/18 12:56:06;;;;;;;12.23;10.93;;;;;;;;;;5009243;28;20419;-45
2023/04/18 12:58:32;;;;;;;12.90;10.40;;;;;;;;;;5010376;28;20553;-45
2023/04/18 13:00:58;;;;;;;16.33;11.90;;;;;;;;;;4995751;28;20465;-45
2023/04/18 13:03:25;;;;;;;12.83;10.70;;;;;;;;;;4995282;28;20407;-45
2023/04/18 13:05:53;;;;;;;13.80;11.47;;;;;;;;;;4995745;28;20418;-45
2023/04/18 13:08:21;;;;;;;12.00;10.77;;;;;;;;;;4995479;28;20507;-45
2023/04/18 13:10:47;;;;;;;17.63;12.07;;;;;;;;;;5005737;28;20952;-45
2023/04/18 13:13:13;;;;;;;14.20;11.57;;;;;;;;;;5013584;28;20994;-44
2023/04/18 13:15:39;;;;;;;14.83;11.60;;;;;;;;;;5014728;28;20413;-45
2023/04/18 13:18:05;;;;;;;13.17;10.90;;;;;;;;;;5010957;28;20839;-45
2023/04/18 13:20:31;;;;;;;14.30;11.57;;;;;;;;;;4995339;28;20385;-44
2023/04/18 13:22:57;;;;;;;13.77;10.27;;;;;;;;;;4995071;28;20380;-44
2023/04/18 13:25:24;;;;;;;16.70;10.80;;;;;;;;;;4995230;28;20463;-44
2023/04/18 13:27:51;;;;;;;15.43;11.63;;;;;;;;;;4994843;28;20434;-44
2023/04/18 13:30:17;;;;;;;15.37;11.30;;;;;;;;;;4995317;28;20416;-44
2023/04/18 13:32:43;;;;;;;15.63;12.30;;;;;;;;;;4994547;28;20500;-44
2023/04/18 13:35:09;;;;;;;13.73;11.40;;;;;;;;;;4995149;28;20595;-45
2023/04/18 13:37:38;;;;;;;14.93;11.83;;;;;;;;;;4994836;28;21029;-44
2023/04/18 13:40:05;;;;;;;15.07;11.33;;;;;;;;;;5000881;28;20470;-44
2023/04/18 13:42:31;;;;;;;15.93;11.20;;;;;;;;;;4996151;28;20433;-44
2023/04/18 13:44:58;;;;;;;14.13;11.93;;;;;;;;;;5014177;28;20801;-45
2023/04/18 13:47:24;;;;;;;15.77;11.73;;;;;;;;;;4999700;28;20444;-44
2023/04/18 13:49:50;;;;;;;15.40;11.80;;;;;;;;;;4994119;28;20426;-44
2023/04/18 13:52:16;;;;;;;20.50;14.67;;;;;;;;;;4994106;28;20455;-45
2023/04/18 13:54:42;;;;;;;14.27;11.67;;;;;;;;;;5000362;28;20729;-45
2023/04/18 13:57:11;;;;;;;13.67;12.00;;;;;;;;;;5011004;28;20404;-45
2023/04/18 13:59:41;;;;;;;15.57;12.23;;;;;;;;;;4992841;28;20455;-44
2023/04/18 14:02:07;;;;;;;16.50;11.73;;;;;;;;;;4993391;28;20962;-45
2023/04/18 14:04:33;;;;;;;13.40;12.03;;;;;;;;;;4994294;28;20403;-46
2023/04/18 14:07:00;;;;;;;15.33;11.80;;;;;;;;;;5007916;28;20903;-44
2023/04/18 14:09:26;;;;;;;13.97;11.10;;;;;;;;;;5013020;28;20956;-45
2023/04/18 14:11:52;;;;;;;15.03;12.40;;;;;;;;;;5004530;28;20902;-45
2023/04/18 14:14:18;;;;;;;13.80;11.77;;;;;;;;;;4994531;28;20395;-45
2023/04/18 14:16:44;;;;;;;13.63;11.97;;;;;;;;;;4994262;28;20415;-45
2023/04/18 14:19:10;;;;;;;12.43;10.90;;;;;;;;;;4998698;28;20456;-45
2023/04/18 14:21:36;;;;;;;14.67;11.23;;;;;;;;;;5016081;28;20387;-45
2023/04/18 14:24:03;;;;;;;17.10;12.83;;;;;;;;;;5015668;28;20474;-45